createdAt,value
2019-04-10T00:01:23.674Z,11.10
2019-04-10T00:03:54.854Z,11.00
2019-04-10T00:06:25.855Z,10.70
2019-04-10T00:08:56.842Z,10.70
2019-04-10T00:11:28.800Z,10.60
2019-04-10T00:14:00.807Z,10.50
2019-04-10T00:16:31.971Z,10.30
2019-04-10T00:19:02.910Z,10.10
2019-04-10T00:21:33.944Z,10.00
2019-04-10T00:24:05.797Z,10.10
2019-04-10T00:26:37.513Z,10.20
2019-04-10T00:29:08.471Z,10.10
2019-04-10T00:31:40.232Z,10.20
2019-04-10T00:34:11.585Z,10.20
2019-04-10T00:36:43.539Z,10.30
2019-04-10T00:39:14.752Z,10.30
2019-04-10T00:41:46.181Z,10.30
2019-04-10T00:44:17.069Z,10.40
2019-04-10T00:46:48.691Z,10.40
2019-04-10T00:49:19.800Z,10.50
2019-04-10T00:51:51.938Z,10.40
2019-04-10T00:54:23.723Z,10.20
2019-04-10T00:56:54.674Z,9.90
2019-04-10T00:59:26.199Z,9.90
2019-04-10T01:01:57.061Z,10.00
2019-04-10T01:04:28.674Z,10.00
2019-04-10T01:07:00.144Z,10.00
2019-04-10T01:09:31.202Z,10.00
2019-04-10T01:12:03.617Z,10.10
2019-04-10T01:14:35.873Z,10.00
2019-04-10T01:17:06.876Z,10.10
2019-04-10T01:19:37.851Z,10.10
2019-04-10T01:22:08.682Z,10.10
2019-04-10T01:24:39.703Z,10.20
2019-04-10T01:27:10.529Z,10.10
2019-04-10T01:29:41.895Z,9.90
2019-04-10T01:32:12.969Z,10.00
2019-04-10T01:34:45.420Z,10.00
2019-04-10T01:37:16.677Z,9.90
2019-04-10T01:39:48.554Z,9.80
2019-04-10T01:42:19.475Z,9.80
2019-04-10T01:44:51.183Z,9.70
2019-04-10T01:47:23.190Z,9.60
2019-04-10T01:49:54.524Z,9.40
2019-04-10T01:52:25.349Z,9.40
2019-04-10T01:54:56.241Z,9.40
2019-04-10T01:57:27.110Z,9.40
2019-04-10T01:59:58.332Z,9.30
2019-04-10T02:02:42.258Z,9.30
2019-04-10T02:05:14.399Z,9.30
2019-04-10T02:07:58.646Z,9.40
2019-04-10T02:10:18.507Z,9.40
2019-04-10T02:12:50.675Z,9.40
2019-04-10T02:15:21.840Z,9.30
2019-04-10T02:17:52.976Z,9.30
2019-04-10T02:20:24.956Z,9.30
2019-04-10T02:22:56.199Z,9.30
2019-04-10T02:25:27.239Z,9.30
2019-04-10T02:27:58.589Z,9.20
2019-04-10T02:30:30.316Z,9.20
2019-04-10T02:33:02.252Z,9.30
2019-04-10T02:35:34.023Z,9.30
2019-04-10T02:38:22.283Z,9.30
2019-04-10T02:40:37.862Z,9.30
2019-04-10T02:43:11.770Z,9.30
2019-04-10T02:45:44.278Z,9.30
2019-04-10T02:48:15.117Z,9.20
2019-04-10T02:50:46.105Z,9.10
2019-04-10T02:53:16.957Z,9.10
2019-04-10T02:55:49.257Z,9.10
2019-04-10T02:58:20.609Z,9.10
2019-04-10T03:00:52.541Z,9.00
2019-04-10T03:03:25.401Z,9.00
2019-04-10T03:05:56.540Z,8.90
2019-04-10T03:08:41.006Z,8.90
2019-04-10T03:11:03.983Z,8.90
2019-04-10T03:13:33.694Z,9.00
2019-04-10T03:16:05.507Z,9.00
2019-04-10T03:18:36.850Z,8.90
2019-04-10T03:21:07.650Z,8.90
2019-04-10T03:23:39.753Z,9.00
2019-04-10T03:26:10.689Z,9.00
2019-04-10T03:28:41.735Z,8.90
2019-04-10T03:31:13.593Z,8.90
2019-04-10T03:34:13.320Z,8.90
2019-04-10T03:36:43.471Z,8.90
2019-04-10T03:39:15.254Z,8.90
2019-04-10T03:41:46.490Z,8.90
2019-04-10T03:44:18.616Z,8.90
2019-04-10T03:46:49.499Z,8.80
2019-04-10T03:49:20.619Z,8.80
2019-04-10T03:51:52.579Z,8.80
2019-04-10T03:54:23.469Z,8.80
2019-04-10T03:56:54.469Z,8.80
2019-04-10T03:59:26.373Z,8.80
2019-04-10T04:01:57.518Z,8.80
2019-04-10T04:04:29.209Z,8.80
2019-04-10T04:07:00.131Z,8.80
2019-04-10T04:09:31.366Z,8.80
2019-04-10T04:12:02.413Z,8.90
2019-04-10T04:14:33.354Z,8.80
2019-04-10T04:17:04.249Z,8.80
2019-04-10T04:19:35.144Z,8.80
2019-04-10T04:22:06.105Z,8.90
2019-04-10T04:24:37.105Z,9.00
2019-04-10T04:27:08.914Z,8.90
2019-04-10T04:29:39.919Z,8.90
2019-04-10T04:32:34.639Z,9.00
2019-04-10T04:35:04.811Z,9.00
2019-04-10T04:37:35.766Z,9.00
2019-04-10T04:40:07.240Z,8.50
2019-04-10T04:42:38.594Z,8.10
2019-04-10T04:45:10.800Z,8.10
2019-04-10T04:47:41.750Z,7.90
2019-04-10T04:50:12.919Z,7.80
2019-04-10T04:52:43.659Z,7.90
2019-04-10T04:55:14.472Z,8.00
2019-04-10T04:57:45.329Z,7.90
2019-04-10T05:00:17.282Z,7.80
2019-04-10T05:02:48.317Z,7.60
2019-04-10T05:05:19.739Z,7.50
2019-04-10T05:07:59.254Z,7.50
2019-04-10T05:10:23.224Z,7.50
2019-04-10T05:12:54.105Z,7.60
2019-04-10T05:15:24.889Z,7.80
2019-04-10T05:17:55.834Z,8.00
2019-04-10T05:20:38.751Z,7.90
2019-04-10T05:22:59.895Z,7.90
2019-04-10T05:25:31.608Z,7.90
2019-04-10T05:28:03.571Z,7.90
2019-04-10T05:30:35.585Z,7.80
2019-04-10T05:33:08.217Z,7.80
2019-04-10T05:35:39.813Z,7.90
2019-04-10T05:38:10.675Z,8.10
2019-04-10T05:40:42.225Z,8.40
2019-04-10T05:43:13.989Z,8.60
2019-04-10T05:45:44.869Z,8.70
2019-04-10T05:48:15.754Z,8.60
2019-04-10T05:50:54.086Z,8.40
2019-04-10T05:53:20.315Z,8.40
2019-04-10T05:55:51.617Z,8.60
2019-04-10T05:58:23.550Z,8.70
2019-04-10T06:00:55.099Z,8.80
2019-04-10T06:03:26.084Z,9.00
2019-04-10T06:05:59.576Z,9.10
2019-04-10T06:08:29.541Z,9.20
2019-04-10T06:11:00.459Z,9.20
2019-04-10T06:13:32.538Z,9.40
2019-04-10T06:16:03.640Z,9.50
2019-04-10T06:18:35.466Z,9.50
2019-04-10T06:21:07.038Z,9.60
2019-04-10T06:23:39.217Z,9.70
2019-04-10T06:26:10.340Z,9.80
2019-04-10T06:28:42.190Z,9.90
2019-04-10T06:31:13.095Z,10.10
2019-04-10T06:33:44.395Z,10.10
2019-04-10T06:36:15.372Z,10.10
2019-04-10T06:38:47.413Z,10.10
2019-04-10T06:41:19.216Z,10.20
2019-04-10T06:43:50.189Z,10.20
2019-04-10T06:46:22.196Z,10.40
2019-04-10T06:48:53.329Z,10.50
2019-04-10T06:51:25.074Z,10.60
2019-04-10T06:54:04.565Z,10.50
2019-04-10T06:56:29.256Z,10.50
2019-04-10T06:59:00.388Z,10.60
2019-04-10T07:01:40.530Z,10.70
2019-04-10T07:04:07.327Z,10.90
2019-04-10T07:06:49.857Z,11.00
2019-04-10T07:09:11.769Z,11.00
2019-04-10T07:11:42.905Z,11.00
2019-04-10T07:14:14.449Z,11.20
2019-04-10T07:16:45.595Z,11.30
2019-04-10T07:19:16.471Z,11.40
2019-04-10T07:21:47.265Z,11.50
2019-04-10T07:24:18.832Z,11.60
2019-04-10T07:26:50.917Z,11.60
2019-04-10T07:29:26.640Z,11.70
2019-04-10T07:31:54.961Z,11.90
2019-04-10T07:34:29.079Z,12.00
2019-04-10T07:36:58.286Z,12.20
2019-04-10T07:39:32.096Z,12.30
2019-04-10T07:42:02.072Z,11.80
2019-04-10T07:44:32.994Z,11.80
2019-04-10T07:47:04.701Z,12.00
2019-04-10T07:49:38.044Z,12.20
2019-04-10T07:52:08.323Z,12.10
2019-04-10T07:54:41.756Z,12.00
2019-04-10T07:57:11.779Z,11.90
2019-04-10T07:59:43.134Z,12.00
2019-04-10T08:02:14.289Z,12.10
2019-04-10T08:04:45.366Z,12.30
2019-04-10T08:07:28.577Z,12.50
2019-04-10T08:09:49.738Z,12.60
2019-04-10T08:12:21.188Z,12.70
2019-04-10T08:14:52.128Z,13.10
2019-04-10T08:17:23.914Z,13.20
2019-04-10T08:19:54.804Z,13.30
2019-04-10T08:22:26.435Z,13.60
2019-04-10T08:24:57.997Z,13.70
2019-04-10T08:27:29.814Z,13.90
2019-04-10T08:30:01.188Z,14.40
2019-04-10T08:32:36.098Z,14.70
2019-04-10T08:35:04.920Z,14.80
2019-04-10T08:37:36.795Z,14.80
2019-04-10T08:40:09.736Z,14.80
2019-04-10T08:42:44.525Z,14.80
2019-04-10T08:45:13.353Z,14.50
2019-04-10T08:47:44.298Z,14.70
2019-04-10T08:50:15.484Z,14.40
2019-04-10T08:52:46.656Z,14.30
2019-04-10T08:55:17.779Z,14.20
2019-04-10T08:57:48.584Z,14.40
2019-04-10T09:00:20.667Z,14.50
2019-04-10T09:02:51.375Z,14.70
2019-04-10T09:05:22.289Z,14.80
2019-04-10T09:07:53.311Z,14.90
2019-04-10T09:10:24.219Z,15.10
2019-04-10T09:12:56.008Z,15.30
2019-04-10T09:15:27.379Z,15.40
2019-04-10T09:17:58.219Z,15.40
2019-04-10T09:20:28.979Z,15.40
2019-04-10T09:23:18.092Z,15.80
2019-04-10T09:25:33.299Z,16.10
2019-04-10T09:28:04.336Z,16.10
2019-04-10T09:30:35.411Z,16.50
2019-04-10T09:33:16.906Z,16.80
2019-04-10T09:35:39.079Z,17.10
2019-04-10T09:38:10.596Z,17.00
2019-04-10T09:40:42.516Z,17.10
2019-04-10T09:43:14.335Z,17.00
2019-04-10T09:45:45.950Z,16.80
2019-04-10T09:48:16.840Z,17.00
2019-04-10T09:50:48.185Z,17.60
2019-04-10T09:53:19.144Z,17.80
2019-04-10T09:55:49.924Z,17.50
2019-04-10T09:58:21.869Z,17.60
2019-04-10T10:00:52.745Z,17.60
2019-04-10T10:03:24.111Z,17.50
2019-04-10T10:05:55.250Z,17.30
2019-04-10T10:08:26.857Z,17.40
2019-04-10T10:10:58.016Z,17.50
2019-04-10T10:13:29.672Z,17.40
2019-04-10T10:16:00.844Z,17.50
2019-04-10T10:18:31.769Z,17.50
2019-04-10T10:21:04.048Z,17.80
2019-04-10T10:23:36.064Z,18.00
2019-04-10T10:26:07.866Z,17.80
2019-04-10T10:28:39.498Z,18.10
2019-04-10T10:31:10.301Z,18.40
2019-04-10T10:33:41.720Z,18.20
2019-04-10T10:36:13.699Z,18.40
2019-04-10T10:38:45.452Z,18.10
2019-04-10T10:41:16.616Z,18.40
2019-04-10T10:43:48.779Z,18.60
2019-04-10T10:46:19.789Z,18.90
2019-04-10T10:48:51.942Z,18.70
2019-04-10T10:51:22.834Z,18.50
2019-04-10T10:53:54.685Z,17.90
2019-04-10T10:56:26.487Z,18.10
2019-04-10T10:58:58.836Z,18.50
2019-04-10T11:01:29.994Z,19.00
2019-04-10T11:04:00.839Z,19.20
2019-04-10T11:06:31.670Z,19.00
2019-04-10T11:09:04.073Z,18.60
2019-04-10T11:11:35.095Z,18.90
2019-04-10T11:14:06.400Z,18.60
2019-04-10T11:16:39.111Z,18.70
2019-04-10T11:19:10.737Z,18.90
2019-04-10T11:21:42.868Z,19.00
2019-04-10T11:24:14.980Z,19.30
2019-04-10T11:26:46.259Z,19.20
2019-04-10T11:29:17.583Z,19.70
2019-04-10T11:31:49.222Z,19.80
2019-04-10T11:34:22.493Z,19.70
2019-04-10T11:37:12.946Z,19.30
2019-04-10T11:39:28.644Z,19.30
2019-04-10T11:41:58.831Z,19.50
2019-04-10T11:44:29.830Z,20.00
2019-04-10T11:47:01.226Z,19.70
2019-04-10T11:49:34.015Z,19.70
2019-04-10T11:52:06.457Z,19.90
2019-04-10T11:54:41.268Z,19.80
2019-04-10T11:57:10.099Z,19.80
2019-04-10T11:59:43.948Z,20.00
2019-04-10T12:02:14.433Z,20.00
2019-04-10T12:04:53.725Z,20.00
2019-04-10T12:07:52.647Z,19.90
2019-04-10T12:12:23.910Z,20.10
2019-04-10T12:14:54.910Z,19.90
2019-04-10T12:17:25.855Z,20.00
2019-04-10T12:19:56.714Z,20.40
2019-04-10T12:22:27.599Z,20.60
2019-04-10T12:24:58.709Z,20.20
2019-04-10T12:27:29.520Z,20.20
2019-04-10T12:30:00.499Z,20.80
2019-04-10T12:32:32.383Z,20.30
2019-04-10T12:35:04.603Z,20.70
2019-04-10T12:37:35.745Z,21.00
2019-04-10T12:40:07.668Z,20.90
2019-04-10T12:42:38.745Z,20.90
2019-04-10T12:45:10.030Z,20.80
2019-04-10T12:47:41.957Z,21.20
2019-04-10T12:50:14.235Z,21.50
2019-04-10T12:52:45.111Z,21.80
2019-04-10T12:55:16.527Z,21.70
2019-04-10T12:57:47.620Z,21.10
2019-04-10T13:00:23.716Z,21.10
2019-04-10T13:02:54.700Z,21.20
2019-04-10T13:05:25.599Z,21.70
2019-04-10T13:07:56.459Z,22.10
2019-04-10T13:10:27.455Z,23.10
2019-04-10T13:12:58.419Z,22.30
2019-04-10T13:15:29.768Z,21.80
2019-04-10T13:18:00.780Z,21.40
2019-04-10T13:20:31.698Z,21.30
2019-04-10T13:23:02.665Z,21.20
2019-04-10T13:25:34.500Z,22.20
2019-04-10T13:28:05.530Z,22.20
2019-04-10T13:30:46.482Z,22.30
2019-04-10T13:33:09.079Z,22.40
2019-04-10T13:35:40.063Z,22.50
2019-04-10T13:38:11.094Z,22.30
2019-04-10T13:40:41.779Z,22.70
2019-04-10T13:43:13.681Z,23.70
2019-04-10T13:45:45.808Z,24.30
2019-04-10T13:48:16.839Z,23.80
2019-04-10T13:50:48.705Z,24.10
2019-04-10T13:53:19.704Z,24.20
2019-04-10T13:55:50.584Z,24.90
2019-04-10T13:58:21.584Z,25.40
2019-04-10T14:00:53.507Z,26.00
2019-04-10T14:03:24.560Z,26.60
2019-04-10T14:05:56.948Z,26.20
2019-04-10T14:08:47.209Z,26.60
2019-04-10T14:11:00.581Z,27.40
2019-04-10T14:13:31.768Z,28.00
2019-04-10T14:16:02.747Z,28.70
2019-04-10T14:18:34.825Z,28.30
2019-04-10T14:21:11.380Z,27.50
2019-04-10T14:23:39.550Z,28.30
2019-04-10T14:26:43.920Z,29.10
2019-04-10T14:29:20.615Z,30.10
2019-04-10T14:31:57.215Z,30.10
2019-04-10T14:34:28.441Z,29.50
2019-04-10T14:37:00.891Z,28.70
2019-04-10T14:39:32.034Z,29.10
2019-04-10T14:42:03.054Z,28.90
2019-04-10T14:44:34.857Z,29.90
2019-04-10T14:47:06.487Z,29.80
2019-04-10T14:49:37.560Z,30.70
2019-04-10T14:52:08.775Z,31.10
2019-04-10T14:54:39.751Z,28.30
2019-04-10T14:57:10.667Z,26.20
2019-04-10T14:59:42.200Z,25.80
2019-04-10T15:02:14.654Z,24.30
2019-04-10T15:04:45.832Z,23.70
2019-04-10T15:07:17.706Z,23.50
2019-04-10T15:09:48.754Z,22.80
2019-04-10T15:12:20.509Z,22.30
2019-04-10T15:14:51.997Z,22.20
2019-04-10T15:17:23.769Z,22.20
2019-04-10T15:19:54.806Z,22.20
2019-04-10T15:22:25.689Z,21.80
2019-04-10T15:24:57.420Z,19.90
2019-04-10T15:27:29.619Z,18.30
2019-04-10T15:30:00.465Z,17.70
2019-04-10T15:32:31.660Z,17.40
2019-04-10T15:35:02.780Z,17.50
2019-04-10T15:37:33.789Z,17.60
2019-04-10T15:40:17.674Z,17.60
2019-04-10T15:42:38.706Z,17.60
2019-04-10T15:45:10.612Z,17.40
2019-04-10T15:47:51.846Z,17.20
2019-04-10T15:50:14.208Z,17.00
2019-04-10T15:52:45.287Z,16.70
2019-04-10T15:55:16.484Z,16.70
2019-04-10T15:57:53.105Z,16.80
2019-04-10T16:00:21.135Z,16.70
2019-04-10T16:02:53.850Z,16.70
2019-04-10T16:05:24.454Z,16.40
2019-04-10T16:07:55.366Z,16.30
2019-04-10T16:10:57.237Z,16.50
2019-04-10T16:13:36.705Z,16.60
2019-04-10T16:16:25.525Z,16.70
2019-04-10T16:19:07.709Z,16.90
2019-04-10T16:21:38.690Z,17.00
2019-04-10T16:24:10.710Z,17.20
2019-04-10T16:26:43.222Z,17.30
2019-04-10T16:29:14.154Z,17.30
2019-04-10T16:31:46.160Z,17.20
2019-04-10T16:34:17.819Z,17.20
2019-04-10T16:36:48.795Z,17.20
2019-04-10T16:39:19.955Z,17.20
2019-04-10T16:41:50.841Z,17.10
2019-04-10T16:44:22.249Z,17.20
2019-04-10T16:46:53.190Z,17.30
2019-04-10T16:49:25.144Z,17.50
2019-04-10T16:51:56.702Z,17.70
2019-04-10T16:54:29.239Z,18.00
2019-04-10T16:57:00.595Z,18.30
2019-04-10T16:59:32.355Z,18.10
2019-04-10T17:02:03.805Z,17.90
2019-04-10T17:04:36.109Z,17.50
2019-04-10T17:07:08.599Z,17.00
2019-04-10T17:09:40.853Z,16.90
2019-04-10T17:12:11.774Z,16.70
2019-04-10T17:14:43.919Z,16.50
2019-04-10T17:17:15.264Z,16.20
2019-04-10T17:19:54.636Z,15.90
2019-04-10T17:22:30.838Z,15.70
2019-04-10T17:24:52.230Z,15.40
2019-04-10T17:27:23.639Z,15.40
2019-04-10T17:29:55.236Z,15.30
2019-04-10T17:32:27.216Z,15.30
2019-04-10T17:34:58.962Z,15.20
2019-04-10T17:37:30.187Z,15.20
2019-04-10T17:40:02.098Z,15.10
2019-04-10T17:42:34.524Z,15.10
2019-04-10T17:45:06.486Z,15.00
2019-04-10T17:47:38.801Z,14.90
2019-04-10T17:50:14.012Z,14.90
2019-04-10T17:52:45.315Z,14.80
2019-04-10T17:55:17.611Z,14.80
2019-04-10T17:57:49.331Z,14.60
2019-04-10T18:00:33.142Z,14.60
2019-04-10T18:03:05.419Z,14.60
2019-04-10T18:05:37.078Z,14.60
2019-04-10T18:08:08.859Z,14.50
2019-04-10T18:10:48.967Z,14.40
2019-04-10T18:13:14.763Z,14.30
2019-04-10T18:15:46.352Z,14.20
2019-04-10T18:18:17.809Z,14.20
2019-04-10T18:20:49.917Z,14.20
2019-04-10T18:23:21.449Z,14.00
2019-04-10T18:25:54.054Z,14.00
2019-04-10T18:28:25.495Z,14.10
2019-04-10T18:30:58.542Z,14.00
2019-04-10T18:33:30.898Z,14.00
2019-04-10T18:36:02.971Z,14.00
2019-04-10T18:38:35.432Z,13.90
2019-04-10T18:41:08.571Z,13.90
2019-04-10T18:43:40.347Z,13.90
2019-04-10T18:46:16.129Z,13.80
2019-04-10T18:48:46.703Z,13.70
2019-04-10T18:51:18.066Z,13.60
2019-04-10T18:53:49.290Z,13.60
2019-04-10T18:56:20.863Z,13.60
2019-04-10T18:59:10.715Z,13.60
2019-04-10T19:02:18.306Z,13.50
2019-04-10T19:04:57.149Z,13.50
2019-04-10T19:07:28.420Z,13.50
2019-04-10T19:09:59.671Z,13.50
2019-04-10T19:12:31.301Z,13.50
2019-04-10T19:15:02.829Z,13.50
2019-04-10T19:17:35.108Z,13.70
2019-04-10T19:20:07.677Z,13.70
2019-04-10T19:22:40.126Z,13.60
2019-04-10T19:25:11.680Z,13.50
2019-04-10T19:27:42.763Z,13.50
2019-04-10T19:30:35.216Z,13.50
2019-04-10T19:33:07.884Z,13.60
2019-04-10T19:35:39.449Z,13.70
2019-04-10T19:38:11.463Z,13.70
2019-04-10T19:40:43.680Z,13.60
2019-04-10T19:43:15.948Z,13.60
2019-04-10T19:45:48.022Z,13.50
2019-04-10T19:48:19.345Z,13.50
2019-04-10T19:50:50.459Z,13.40
2019-04-10T19:53:21.760Z,13.40
2019-04-10T19:55:53.895Z,13.30
2019-04-10T19:58:26.025Z,13.20
2019-04-10T20:00:57.280Z,13.10
2019-04-10T20:03:28.365Z,13.10
2019-04-10T20:06:00.282Z,13.00
2019-04-10T20:08:31.487Z,13.00
2019-04-10T20:11:02.591Z,13.00
2019-04-10T20:13:34.640Z,12.90
2019-04-10T20:16:06.913Z,12.80
2019-04-10T20:18:50.795Z,12.70
2019-04-10T20:21:22.599Z,12.70
2019-04-10T20:24:03.129Z,12.70
2019-04-10T20:26:34.875Z,12.60
2019-04-10T20:29:06.704Z,12.60
2019-04-10T20:31:39.466Z,12.50
2019-04-10T20:34:11.560Z,12.50
2019-04-10T20:36:42.799Z,12.50
2019-04-10T20:39:14.904Z,12.50
2019-04-10T20:41:51.952Z,12.50
2019-04-10T20:44:18.999Z,12.50
2019-04-10T20:46:50.733Z,12.50
2019-04-10T20:49:22.491Z,12.40
2019-04-10T20:51:53.709Z,12.40
2019-04-10T20:54:25.525Z,12.40
2019-04-10T20:56:57.054Z,12.50
2019-04-10T20:59:28.614Z,12.50
2019-04-10T21:01:59.927Z,12.50
2019-04-10T21:04:31.770Z,12.50
2019-04-10T21:07:03.019Z,12.50
2019-04-10T21:09:34.194Z,12.50
2019-04-10T21:12:10.470Z,12.60
2019-04-10T21:14:38.060Z,12.60
2019-04-10T21:17:09.774Z,12.60
2019-04-10T21:19:41.043Z,12.70
2019-04-10T21:22:12.010Z,12.80
2019-04-10T21:24:43.444Z,12.80
2019-04-10T21:27:14.485Z,12.80
2019-04-10T21:30:03.929Z,12.80
2019-04-10T21:33:03.714Z,12.90
2019-04-10T21:35:37.096Z,12.90
2019-04-10T21:38:08.139Z,12.90
2019-04-10T21:40:39.309Z,12.80
2019-04-10T21:43:10.151Z,12.80
2019-04-10T21:45:41.323Z,12.80
2019-04-10T21:48:12.627Z,12.80
2019-04-10T21:50:44.005Z,12.80
2019-04-10T21:53:14.874Z,12.80
2019-04-10T21:55:45.916Z,12.70
2019-04-10T21:58:16.934Z,12.70
2019-04-10T22:01:15.634Z,12.70
2019-04-10T22:03:46.837Z,12.70
2019-04-10T22:06:39.760Z,12.70
2019-04-10T22:09:39.073Z,12.70
2019-04-10T22:12:33.263Z,12.70
2019-04-10T22:15:02.323Z,12.80
2019-04-10T22:17:34.177Z,12.80
2019-04-10T22:20:05.450Z,12.70
2019-04-10T22:22:37.179Z,12.70
2019-04-10T22:25:09.119Z,12.60
2019-04-10T22:27:41.221Z,12.60
2019-04-10T22:30:12.512Z,12.60
2019-04-10T22:32:43.304Z,12.60
2019-04-10T22:35:15.256Z,12.50
2019-04-10T22:37:46.408Z,12.50
2019-04-10T22:40:17.520Z,12.50
2019-04-10T22:42:48.665Z,12.50
2019-04-10T22:45:30.773Z,12.50
2019-04-10T22:48:01.956Z,12.50
2019-04-10T22:50:34.346Z,12.40
2019-04-10T22:53:06.749Z,12.40
2019-04-10T22:55:38.043Z,12.40
2019-04-10T22:58:08.899Z,12.40
2019-04-10T23:00:39.971Z,12.40
2019-04-10T23:03:11.457Z,12.40
2019-04-10T23:05:42.791Z,12.30
2019-04-10T23:08:13.695Z,12.30
2019-04-10T23:10:45.535Z,12.30
2019-04-10T23:13:16.484Z,12.20
2019-04-10T23:15:47.781Z,12.30
2019-04-10T23:18:18.521Z,12.30
2019-04-10T23:20:50.282Z,12.30
2019-04-10T23:23:21.559Z,12.30
2019-04-10T23:25:53.043Z,12.20
2019-04-10T23:28:25.207Z,12.20
2019-04-10T23:30:57.272Z,12.20
2019-04-10T23:33:28.217Z,12.10
2019-04-10T23:35:59.980Z,12.10
2019-04-10T23:38:31.296Z,12.10
2019-04-10T23:41:02.137Z,12.10
2019-04-10T23:43:33.170Z,12.10
2019-04-10T23:46:04.208Z,12.10
2019-04-10T23:48:35.089Z,12.00
2019-04-10T23:51:06.962Z,12.00
2019-04-10T23:53:38.425Z,11.90
2019-04-10T23:56:09.410Z,11.90
2019-04-10T23:58:40.319Z,11.90
